Time;durP1;ratioP1;P1;durP2;ratioP2;P2;SDS_P1;SDS_P2;PMS_P1;PMS_P2;Temp;Humidity;BMP_temperature;BMP_pressure;BME280_temperature;BME280_humidity;BME280_pressure;Samples;Min_cycle;Max_cycle;Signal;HPM_P1;HPM_P2
2022/06/27 00:02:27;;;;;;;16.50;9.13;;;;;;;19.20;100.00;94974.72;4993404;28;20212;-83
2022/06/27 00:04:59;;;;;;;18.52;8.75;;;;;;;19.23;100.00;94965.47;4992233;28;20200;-84
2022/06/27 00:07:36;;;;;;;15.45;8.52;;;;;;;19.22;100.00;94963.88;4995092;28;20236;-83
2022/06/27 00:10:17;;;;;;;13.90;8.48;;;;;;;19.21;100.00;94962.31;4994252;28;20690;-83
2022/06/27 00:12:52;;;;;;;19.75;9.10;;;;;;;19.19;100.00;94962.56;4993264;28;20231;-82
2022/06/27 00:15:29;;;;;;;17.48;8.73;;;;;;;19.13;100.00;94968.13;4995199;28;20203;-83
2022/06/27 00:18:06;;;;;;;14.35;8.43;;;;;;;19.04;100.00;94964.44;4995071;28;20217;-83
2022/06/27 00:20:43;;;;;;;18.40;9.48;;;;;;;18.87;100.00;94951.50;4993813;28;20215;-84
2022/06/27 00:23:23;;;;;;;19.33;8.27;;;;;;;18.85;100.00;94963.34;4993480;28;20214;-82
2022/06/27 00:25:56;;;;;;;17.88;8.70;;;;;;;18.85;100.00;94956.22;4990194;28;20204;-82
2022/06/27 00:28:34;;;;;;;19.33;9.60;;;;;;;18.87;100.00;94972.59;4996199;28;20257;-79
2022/06/27 00:31:12;;;;;;;18.15;9.80;;;;;;;18.72;100.00;94959.38;4994108;28;20231;-80
2022/06/27 00:33:49;;;;;;;22.00;10.15;;;;;;;18.66;100.00;94970.94;4992624;28;20227;-80
2022/06/27 00:36:28;;;;;;;23.27;11.13;;;;;;;18.60;100.00;94962.25;4989984;28;20322;-80
2022/06/27 00:39:07;;;;;;;22.25;10.68;;;;;;;18.58;100.00;94960.94;4991670;28;20809;-81
2022/06/27 00:41:43;;;;;;;18.73;9.73;;;;;;;18.52;100.00;94951.44;5001833;28;20671;-81
2022/06/27 00:44:37;;;;;;;13.77;8.40;;;;;;;18.61;100.00;94965.69;4999403;28;20200;-83
2022/06/27 00:47:17;;;;;;;10.52;7.88;;;;;;;18.45;100.00;94937.69;4993957;28;20482;-83
2022/06/27 00:49:56;;;;;;;12.65;7.70;;;;;;;18.51;100.00;94952.47;4988378;28;20718;-83
2022/06/27 00:52:39;;;;;;;14.35;8.07;;;;;;;18.49;100.00;94952.75;4997197;28;20230;-83
2022/06/27 00:55:13;;;;;;;11.93;7.75;;;;;;;18.58;100.00;94963.56;4995500;28;20208;-81
2022/06/27 00:57:46;;;;;;;14.43;9.03;;;;;;;18.60;100.00;94945.66;4991683;28;20329;-81
2022/06/27 01:00:19;;;;;;;19.88;8.98;;;;;;;18.60;100.00;94937.75;4991209;28;20208;-81
2022/06/27 01:02:50;;;;;;;16.73;9.18;;;;;;;18.68;100.00;94948.56;4996167;28;20210;-81
2022/06/27 01:05:22;;;;;;;19.42;8.52;;;;;;;18.67;100.00;94948.84;4988632;28;20215;-81
2022/06/27 01:07:55;;;;;;;15.73;9.05;;;;;;;18.46;100.00;94926.91;4991387;28;20239;-81
2022/06/27 01:10:27;;;;;;;16.98;8.52;;;;;;;18.58;100.00;94953.81;4999650;28;20225;-80
2022/06/27 01:12:58;;;;;;;10.60;6.75;;;;;;;18.58;100.00;94942.50;4990924;28;20220;-84
2022/06/27 01:15:32;;;;;;;9.63;6.30;;;;;;;18.42;100.00;94932.94;4992557;28;20227;-83
2022/06/27 01:18:00;;;;;;;8.27;5.82;;;;;;;18.40;100.00;94932.41;4992788;28;20218;-83
2022/06/27 01:20:29;;;;;;;8.43;6.63;;;;;;;18.26;100.00;94905.00;4990966;28;20371;-81
2022/06/27 01:23:00;;;;;;;12.90;6.40;;;;;;;18.23;100.00;94916.03;4992633;28;20214;-84
2022/06/27 01:25:30;;;;;;;11.30;6.50;;;;;;;18.37;100.00;94935.56;4990788;28;20204;-84
2022/06/27 01:28:03;;;;;;;14.98;6.97;;;;;;;18.37;100.00;94946.09;4997289;28;20218;-83
2022/06/27 01:30:33;;;;;;;11.07;6.13;;;;;;;18.36;100.00;94940.03;4994900;28;20211;-82
2022/06/27 01:33:05;;;;;;;9.53;6.40;;;;;;;18.38;100.00;94943.22;4996793;28;20341;-82
2022/06/27 01:35:39;;;;;;;12.25;7.10;;;;;;;18.45;100.00;94943.75;4993641;28;20215;-82
2022/06/27 01:38:16;;;;;;;17.87;7.00;;;;;;;18.42;100.00;94938.19;5003769;28;20303;-82
2022/06/27 01:40:49;;;;;;;9.30;6.90;;;;;;;18.37;100.00;94939.00;4994874;28;20250;-83
2022/06/27 01:43:27;;;;;;;12.57;7.27;;;;;;;18.38;100.00;94947.69;4991780;28;20577;-82
2022/06/27 01:45:54;;;;;;;16.05;7.40;;;;;;;18.38;100.00;94953.75;4994740;28;20207;-82
2022/06/27 01:48:26;;;;;;;14.38;7.68;;;;;;;18.41;100.00;94955.81;4991636;28;20206;-85
2022/06/27 01:51:00;;;;;;;10.85;6.85;;;;;;;18.45;100.00;94958.75;4998627;28;20238;-86
2022/06/27 01:53:38;;;;;;;12.85;7.30;;;;;;;18.37;100.00;94964.50;4998635;28;20223;-83
2022/06/27 01:56:11;;;;;;;13.90;6.97;;;;;;;18.37;100.00;94956.63;4994333;28;20769;-85
2022/06/27 01:58:44;;;;;;;10.07;7.13;;;;;;;18.18;100.00;94934.47;4989976;28;20204;-83
2022/06/27 02:01:16;;;;;;;9.55;6.55;;;;;;;18.26;100.00;94960.25;4989321;28;20635;-83
2022/06/27 02:03:44;;;;;;;10.43;7.32;;;;;;;18.31;100.00;94955.81;4990199;28;20346;-84
2022/06/27 02:06:14;;;;;;;10.80;6.80;;;;;;;18.38;100.00;94968.75;4996991;28;20649;-82
2022/06/27 02:08:47;;;;;;;10.13;7.00;;;;;;;18.36;100.00;94974.25;4993568;28;20211;-83
2022/06/27 02:11:22;;;;;;;10.15;6.95;;;;;;;18.34;100.00;94965.81;4985641;28;20606;-84
2022/06/27 02:13:51;;;;;;;10.05;7.32;;;;;;;18.40;100.00;94977.16;4996056;28;20231;-84
2022/06/27 02:16:21;;;;;;;13.48;7.55;;;;;;;18.38;100.00;94981.91;4989512;28;20219;-83
2022/06/27 02:18:54;;;;;;;16.90;8.00;;;;;;;18.30;100.00;94985.00;4995825;28;20212;-84
2022/06/27 02:21:29;;;;;;;18.83;8.00;;;;;;;18.15;100.00;94981.25;4992010;28;20207;-83
2022/06/27 02:24:04;;;;;;;14.90;7.53;;;;;;;18.02;100.00;94975.69;4995117;28;20207;-83
2022/06/27 02:26:40;;;;;;;11.27;7.80;;;;;;;17.93;100.00;94958.81;4995186;28;20216;-83
2022/06/27 02:29:13;;;;;;;13.93;7.80;;;;;;;17.72;100.00;94928.97;4994685;28;20262;-83
2022/06/27 02:31:53;;;;;;;13.90;8.23;;;;;;;17.96;100.00;94969.59;4990682;28;20214;-83
2022/06/27 02:34:28;;;;;;;14.57;8.20;;;;;;;17.98;100.00;94985.91;4995836;28;20211;-83
2022/06/27 02:37:03;;;;;;;11.47;8.30;;;;;;;17.91;100.00;94976.69;4994829;28;20191;-83
2022/06/27 02:39:42;;;;;;;12.43;7.20;;;;;;;18.09;100.00;94995.44;4987509;28;20277;-83
2022/06/27 02:42:13;;;;;;;14.83;8.43;;;;;;;18.03;100.00;94982.53;4997500;28;20212;-82
2022/06/27 02:44:45;;;;;;;14.60;8.23;;;;;;;18.16;100.00;95000.47;4988947;28;20621;-83
2022/06/27 02:47:23;;;;;;;12.35;8.40;;;;;;;18.10;100.00;94988.34;4995078;28;20215;-83
2022/06/27 02:49:56;;;;;;;16.87;8.87;;;;;;;18.17;100.00;94999.44;4987086;28;20203;-82
2022/06/27 02:52:31;;;;;;;12.87;8.50;;;;;;;18.11;100.00;94993.38;4994381;28;20207;-83
2022/06/27 02:55:14;;;;;;;15.20;8.70;;;;;;;18.09;100.00;95000.69;4995172;28;20654;-83
2022/06/27 02:57:54;;;;;;;16.93;9.00;;;;;;;18.04;100.00;94995.41;4991343;28;20208;-83
2022/06/27 03:00:25;;;;;;;15.95;8.68;;;;;;;18.06;100.00;95001.25;4996347;28;20227;-86
2022/06/27 03:02:59;;;;;;;13.67;8.37;;;;;;;18.11;100.00;95003.88;4990335;28;20207;-84
2022/06/27 03:05:30;;;;;;;17.87;8.90;;;;;;;17.92;100.00;94978.28;4991084;28;20203;-85
2022/06/27 03:08:01;;;;;;;22.42;10.90;;;;;;;18.11;100.00;95010.97;4991284;28;20302;-86
2022/06/27 03:10:32;;;;;;;21.88;11.68;;;;;;;18.10;100.00;94996.22;4990094;28;20690;-86
2022/06/27 03:13:05;;;;;;;23.02;10.52;;;;;;;18.15;100.00;95006.81;4999257;28;20270;-86
2022/06/27 03:15:40;;;;;;;15.68;9.98;;;;;;;18.10;100.00;95006.75;4987285;28;20223;-85
2022/06/27 03:18:45;;;;;;;16.17;9.80;;;;;;;18.10;100.00;95004.94;4992423;28;20294;-84
2022/06/27 03:21:20;;;;;;;15.80;9.03;;;;;;;18.12;100.00;95007.31;4993407;28;20202;-85
2022/06/27 03:24:14;;;;;;;15.07;9.20;;;;;;;18.12;100.00;94994.94;4990384;28;20282;-86
2022/06/27 03:26:47;;;;;;;12.18;8.10;;;;;;;18.14;100.00;95010.47;4986691;28;20199;-84
2022/06/27 03:29:18;;;;;;;11.83;8.37;;;;;;;18.07;100.00;94992.28;4988191;28;20299;-84
2022/06/27 03:31:49;;;;;;;12.43;8.25;;;;;;;18.16;100.00;95005.75;4994145;28;20286;-83
2022/06/27 03:34:16;;;;;;;13.60;8.23;;;;;;;18.21;100.00;95002.34;4994431;28;20220;-83
2022/06/27 03:36:58;;;;;;;12.27;7.63;;;;;;;18.23;100.00;95013.41;4998762;28;20218;-82
2022/06/27 03:39:33;;;;;;;11.27;7.32;;;;;;;18.21;100.00;95002.34;4991140;28;20231;-84
2022/06/27 03:42:07;;;;;;;10.03;5.90;;;;;;;18.28;100.00;95008.16;5004222;28;20216;-84
2022/06/27 03:44:49;;;;;;;13.32;6.15;;;;;;;18.29;100.00;95007.13;4986656;28;20199;-84
2022/06/27 03:47:20;;;;;;;8.27;6.10;;;;;;;18.24;100.00;95007.09;4994675;28;20642;-84
2022/06/27 03:50:04;;;;;;;7.97;5.63;;;;;;;18.26;100.00;95008.44;4995614;28;20212;-85
2022/06/27 03:52:39;;;;;;;11.73;6.07;;;;;;;18.25;100.00;95009.47;4994940;28;20209;-84
2022/06/27 03:55:12;;;;;;;10.75;6.10;;;;;;;18.27;100.00;95017.88;4996578;28;20668;-85
2022/06/27 03:57:51;;;;;;;14.50;7.53;;;;;;;18.28;100.00;95016.06;4979838;28;20203;-80
2022/06/27 04:00:45;;;;;;;13.55;6.55;;;;;;;18.27;100.00;95017.88;4964993;28;20452;-79
2022/06/27 04:03:18;;;;;;;17.00;7.30;;;;;;;18.28;100.00;95008.97;4988934;28;20298;-81
2022/06/27 04:06:14;;;;;;;17.00;7.50;;;;;;;18.32;100.00;95011.88;4987634;28;20250;-81
2022/06/27 04:09:17;;;;;;;12.85;6.75;;;;;;;18.26;100.00;95013.69;4982433;28;20315;-79
2022/06/27 04:12:10;;;;;;;11.45;6.95;;;;;;;18.32;100.00;95017.13;4970424;28;20210;-79
2022/06/27 04:14:48;;;;;;;13.03;6.83;;;;;;;18.23;100.00;95016.84;4983021;28;20224;-80
2022/06/27 04:17:25;;;;;;;13.57;6.70;;;;;;;18.26;100.00;95015.53;4989303;28;20203;-81
2022/06/27 04:19:55;;;;;;;9.77;7.03;;;;;;;18.19;100.00;95012.31;4993272;28;20223;-80
2022/06/27 04:22:30;;;;;;;13.07;7.23;;;;;;;17.92;100.00;95009.84;4990811;28;20271;-81
2022/06/27 04:25:06;;;;;;;14.43;7.40;;;;;;;17.82;100.00;95018.44;4991604;28;20660;-81
2022/06/27 04:27:39;;;;;;;15.33;6.83;;;;;;;17.67;100.00;95020.97;4992146;28;20248;-81
2022/06/27 04:30:21;;;;;;;11.77;7.57;;;;;;;17.50;100.00;95012.41;4993411;28;20204;-81
2022/06/27 04:32:53;;;;;;;14.00;7.97;;;;;;;17.43;100.00;95014.47;4993881;28;20199;-81
2022/06/27 04:35:26;;;;;;;10.20;7.80;;;;;;;17.33;100.00;95022.25;4996499;28;20282;-82
2022/06/27 04:38:00;;;;;;;15.67;9.17;;;;;;;17.36;100.00;95019.94;4990871;28;20708;-81
2022/06/27 04:40:33;;;;;;;12.67;8.37;;;;;;;17.54;100.00;95013.53;4987513;28;20209;-80
2022/06/27 04:43:10;;;;;;;13.73;8.07;;;;;;;17.69;100.00;95018.09;4990576;28;21047;-80
2022/06/27 04:45:49;;;;;;;12.90;8.87;;;;;;;17.83;100.00;95011.34;4996617;28;20210;-81
2022/06/27 04:48:26;;;;;;;14.83;9.40;;;;;;;17.70;100.00;95012.56;4990523;28;20202;-80
2022/06/27 04:51:01;;;;;;;13.67;8.47;;;;;;;17.74;100.00;95015.50;4992447;28;20266;-80
2022/06/27 04:53:32;;;;;;;13.50;8.45;;;;;;;17.86;100.00;95019.53;4993793;28;20284;-80
2022/06/27 04:56:08;;;;;;;14.47;9.03;;;;;;;17.96;100.00;95016.94;4988897;28;20207;-80
2022/06/27 04:58:45;;;;;;;15.63;8.80;;;;;;;18.07;100.00;95013.31;4990529;28;20318;-80
2022/06/27 05:01:23;;;;;;;15.47;8.73;;;;;;;18.19;100.00;95009.69;4993384;28;20705;-81
2022/06/27 05:03:58;;;;;;;17.03;9.67;;;;;;;18.32;100.00;95009.25;4988973;28;20200;-80
2022/06/27 05:06:33;;;;;;;16.13;8.80;;;;;;;18.42;100.00;95009.28;4989029;28;20721;-79
2022/06/27 05:09:10;;;;;;;12.67;8.40;;;;;;;18.43;100.00;95016.91;4988643;28;20650;-80
2022/06/27 05:11:47;;;;;;;16.45;8.32;;;;;;;18.32;100.00;95017.94;4985722;28;20582;-80
2022/06/27 05:14:20;;;;;;;11.33;7.93;;;;;;;18.47;100.00;95022.47;4990934;28;20223;-81
2022/06/27 05:16:55;;;;;;;14.63;9.18;;;;;;;18.39;100.00;95029.00;4997343;28;20236;-79
2022/06/27 05:19:28;;;;;;;15.38;9.18;;;;;;;18.26;100.00;95031.31;4989494;28;21007;-80
2022/06/27 05:22:01;;;;;;;14.15;8.32;;;;;;;18.31;100.00;95026.88;4991589;28;20211;-80
2022/06/27 05:24:32;;;;;;;15.98;8.75;;;;;;;18.44;100.00;95025.63;4995466;28;20569;-79
2022/06/27 05:27:05;;;;;;;13.83;8.77;;;;;;;18.33;100.00;95021.34;4994781;28;20306;-80
2022/06/27 05:29:39;;;;;;;17.50;9.63;;;;;;;18.34;100.00;95026.34;4988048;28;20952;-81
2022/06/27 05:32:15;;;;;;;15.87;9.40;;;;;;;18.27;100.00;95025.78;4993023;28;20206;-81
2022/06/27 05:34:50;;;;;;;14.40;9.27;;;;;;;18.25;100.00;95033.16;4990622;28;20773;-81
2022/06/27 05:37:22;;;;;;;16.38;8.80;;;;;;;18.29;100.00;95036.06;4990101;28;20218;-82
2022/06/27 05:39:52;;;;;;;15.37;8.47;;;;;;;18.36;100.00;95039.25;4990888;28;20211;-80
2022/06/27 05:42:23;;;;;;;19.47;9.07;;;;;;;18.40;100.00;95027.97;4996297;28;20307;-80
2022/06/27 05:44:54;;;;;;;16.25;9.57;;;;;;;18.56;100.00;95042.78;5000139;28;20211;-78
2022/06/27 05:47:31;;;;;;;20.98;8.70;;;;;;;18.58;100.00;95029.38;4992003;28;20209;-77
2022/06/27 05:50:04;;;;;;;13.30;8.40;;;;;;;18.77;100.00;95037.59;4992080;28;20277;-77
2022/06/27 05:52:36;;;;;;;13.70;8.57;;;;;;;18.88;100.00;95037.38;4980807;28;20620;-79
2022/06/27 05:55:13;;;;;;;12.70;7.80;;;;;;;18.99;100.00;95051.38;4989694;28;20350;-80
2022/06/27 05:57:46;;;;;;;15.48;13.88;;;;;;;19.06;100.00;95036.88;4993839;28;20291;-80
2022/06/27 06:00:23;;;;;;;12.77;9.60;;;;;;;19.17;100.00;95043.75;4991047;28;20230;-79
2022/06/27 06:03:03;;;;;;;13.27;8.43;;;;;;;19.23;100.00;95049.81;4989291;28;20294;-79
2022/06/27 06:05:38;;;;;;;19.90;8.60;;;;;;;19.13;100.00;95042.69;4988762;28;20286;-80
2022/06/27 06:08:23;;;;;;;15.18;8.40;;;;;;;19.18;100.00;95047.97;4985522;28;20571;-79
2022/06/27 06:10:58;;;;;;;12.32;8.27;;;;;;;19.23;100.00;95040.06;4992612;28;20208;-81
2022/06/27 06:13:34;;;;;;;11.25;8.10;;;;;;;19.27;100.00;95045.63;4992206;28;20206;-82
2022/06/27 06:16:10;;;;;;;20.13;9.63;;;;;;;19.28;100.00;95040.06;4988380;28;20287;-81
2022/06/27 06:18:52;;;;;;;13.18;9.13;;;;;;;19.34;100.00;95040.88;4994582;28;20203;-81
2022/06/27 06:21:27;;;;;;;25.20;9.75;;;;;;;19.38;100.00;95046.41;4987496;28;20247;-81
2022/06/27 06:24:02;;;;;;;13.75;8.95;;;;;;;19.45;100.00;95044.34;4988247;28;20221;-82
2022/06/27 06:26:37;;;;;;;19.55;9.55;;;;;;;19.53;100.00;95044.63;4989983;28;20198;-81
2022/06/27 06:29:12;;;;;;;20.80;9.43;;;;;;;19.58;100.00;95049.09;4992134;28;20203;-81
2022/06/27 06:31:44;;;;;;;13.82;9.38;;;;;;;19.65;100.00;95039.06;4991303;28;20257;-81
2022/06/27 06:34:19;;;;;;;14.55;9.82;;;;;;;19.76;100.00;95048.56;4991701;28;20722;-82
2022/06/27 06:36:50;;;;;;;13.88;9.00;;;;;;;19.88;100.00;95054.34;4988740;28;20199;-81
2022/06/27 06:39:23;;;;;;;16.02;9.90;;;;;;;19.98;100.00;95048.25;4993907;28;20219;-81
2022/06/27 06:41:54;;;;;;;16.13;9.20;;;;;;;20.07;100.00;95057.22;4994838;28;20262;-78
2022/06/27 06:44:24;;;;;;;18.42;10.90;;;;;;;20.12;100.00;95058.00;4992686;28;20200;-81
2022/06/27 06:46:54;;;;;;;14.15;9.63;;;;;;;20.20;100.00;95064.59;4996184;28;20210;-80
2022/06/27 06:49:25;;;;;;;13.80;9.20;;;;;;;20.24;100.00;95061.16;4988490;28;20207;-81
2022/06/27 06:51:54;;;;;;;13.93;9.52;;;;;;;20.28;100.00;95062.25;4989491;28;20290;-81
2022/06/27 06:54:25;;;;;;;14.38;9.90;;;;;;;20.33;100.00;95064.06;4993675;28;20227;-83
2022/06/27 06:56:55;;;;;;;13.65;9.88;;;;;;;20.43;100.00;95069.34;4988975;28;20255;-83
2022/06/27 06:59:24;;;;;;;13.85;9.82;;;;;;;20.51;100.00;95062.69;4992808;28;20256;-83
2022/06/27 07:01:53;;;;;;;13.32;9.25;;;;;;;20.51;100.00;95065.34;4989300;28;20212;-82
2022/06/27 07:04:23;;;;;;;13.98;10.27;;;;;;;20.60;100.00;95066.38;4994244;28;20270;-82
2022/06/27 07:06:55;;;;;;;14.85;9.85;;;;;;;20.71;100.00;95081.09;4992764;28;20327;-82
2022/06/27 07:09:31;;;;;;;15.10;9.00;;;;;;;20.70;100.00;95075.03;4993771;28;20204;-82
2022/06/27 07:12:13;;;;;;;13.05;8.90;;;;;;;20.64;100.00;95043.59;4993636;28;20218;-82
2022/06/27 07:14:42;;;;;;;12.38;8.95;;;;;;;20.57;100.00;95040.50;4997868;28;20231;-81
2022/06/27 07:17:13;;;;;;;14.02;8.93;;;;;;;20.90;100.00;95076.78;4993822;28;20207;-82
2022/06/27 07:19:56;;;;;;;12.05;9.05;;;;;;;20.89;100.00;95073.34;4993741;28;20758;-82
2022/06/27 07:22:30;;;;;;;15.85;8.73;;;;;;;21.03;100.00;95084.16;4990391;28;20219;-80
2022/06/27 07:24:58;;;;;;;10.32;7.53;;;;;;;21.11;100.00;95086.25;4990655;28;20670;-80
2022/06/27 07:27:29;;;;;;;10.18;7.60;;;;;;;21.18;100.00;95076.13;4993313;28;20218;-79
2022/06/27 07:30:03;;;;;;;13.50;8.20;;;;;;;21.26;100.00;95070.28;4995351;28;20238;-79
2022/06/27 07:32:33;;;;;;;11.48;8.20;;;;;;;21.43;100.00;95083.16;4997937;28;20214;-80
2022/06/27 07:35:04;;;;;;;12.60;8.05;;;;;;;21.49;100.00;95085.50;4995173;28;20238;-80
2022/06/27 07:37:36;;;;;;;11.40;7.07;;;;;;;21.57;100.00;95083.31;4993589;28;21515;-80
2022/06/27 07:40:06;;;;;;;8.98;6.82;;;;;;;21.61;100.00;95081.69;4995297;28;20219;-79
2022/06/27 07:42:38;;;;;;;14.63;7.63;;;;;;;21.70;100.00;95085.34;4990914;28;20303;-80
2022/06/27 07:45:08;;;;;;;8.40;6.93;;;;;;;21.81;100.00;95082.34;4990969;28;20247;-80
2022/06/27 07:47:42;;;;;;;11.13;7.40;;;;;;;21.86;100.00;95081.50;4992148;28;20286;-80
2022/06/27 07:50:36;;;;;;;10.63;6.88;;;;;;;21.89;100.00;95083.63;4991156;28;20203;-79
2022/06/27 07:53:17;;;;;;;11.30;6.80;;;;;;;21.93;99.39;95082.78;4991290;28;20687;-80
2022/06/27 07:55:51;;;;;;;11.73;6.18;;;;;;;22.02;95.91;95085.59;4992331;28;20255;-81
2022/06/27 07:58:26;;;;;;;10.23;6.65;;;;;;;22.02;95.30;95075.03;4992131;28;20655;-81
2022/06/27 08:00:57;;;;;;;8.35;6.18;;;;;;;22.05;95.16;95071.81;4992795;28;20211;-81
2022/06/27 08:03:46;;;;;;;11.40;6.13;;;;;;;22.12;94.93;95068.84;4991787;28;20204;-81
2022/06/27 08:06:20;;;;;;;9.90;6.22;;;;;;;21.97;94.62;95038.81;4988946;28;20275;-82
2022/06/27 08:08:54;;;;;;;8.55;6.57;;;;;;;22.34;93.60;95069.94;4991718;28;20203;-80
2022/06/27 08:11:27;;;;;;;10.15;6.32;;;;;;;22.47;93.33;95079.09;4998782;28;20986;-84
2022/06/27 08:14:03;;;;;;;9.10;6.20;;;;;;;22.50;92.91;95075.88;4991913;28;20836;-84
2022/06/27 08:16:34;;;;;;;9.70;6.13;;;;;;;22.58;91.82;95078.69;4998030;28;20277;-78
2022/06/27 08:19:03;;;;;;;11.07;6.07;;;;;;;22.60;92.12;95070.47;4995964;28;20208;-77
2022/06/27 08:21:37;;;;;;;9.77;6.40;;;;;;;22.74;92.05;95075.91;4999133;28;20721;-77
2022/06/27 08:24:11;;;;;;;6.63;5.70;;;;;;;22.84;91.36;95081.06;4997015;28;20208;-78
2022/06/27 08:26:43;;;;;;;10.65;5.97;;;;;;;22.89;91.46;95075.72;5002799;28;20203;-77
2022/06/27 08:29:13;;;;;;;9.05;5.72;;;;;;;22.98;90.99;95072.16;4996522;28;20195;-78
2022/06/27 08:31:44;;;;;;;7.05;5.72;;;;;;;23.14;90.34;95075.41;4990025;28;20204;-77
2022/06/27 08:34:17;;;;;;;13.07;5.53;;;;;;;23.25;89.33;95078.69;4994441;28;20648;-77
2022/06/27 08:36:50;;;;;;;11.23;5.60;;;;;;;23.34;86.55;95077.78;4990516;28;20254;-78
2022/06/27 08:39:18;;;;;;;8.02;5.80;;;;;;;23.44;85.82;95069.69;4983636;28;21114;-81
2022/06/27 08:41:49;;;;;;;9.80;5.88;;;;;;;23.51;86.80;95067.47;4996886;28;20203;-81
2022/06/27 08:44:21;;;;;;;9.55;6.03;;;;;;;23.52;86.80;95061.06;4990937;28;20210;-80
2022/06/27 08:46:55;;;;;;;9.90;6.05;;;;;;;23.55;86.77;95067.69;4990852;28;20196;-80
2022/06/27 08:49:27;;;;;;;12.38;5.68;;;;;;;23.56;84.66;95062.06;4997099;28;20251;-80
2022/06/27 08:51:57;;;;;;;11.45;5.90;;;;;;;23.44;84.67;95072.34;4991941;28;20299;-80
2022/06/27 08:54:30;;;;;;;10.95;5.90;;;;;;;23.45;85.63;95068.63;4990708;28;20569;-80
2022/06/27 08:57:01;;;;;;;7.63;5.72;;;;;;;23.53;86.31;95067.16;4994487;28;21012;-81
2022/06/27 08:59:31;;;;;;;9.27;5.93;;;;;;;23.57;86.59;95063.66;4990662;28;20211;-81
2022/06/27 09:02:03;;;;;;;7.93;5.93;;;;;;;23.66;87.46;95067.22;4990661;28;20204;-80
2022/06/27 09:04:58;;;;;;;12.05;5.45;;;;;;;23.76;85.00;95065.47;4996773;28;20208;-81
2022/06/27 09:07:50;;;;;;;8.38;5.00;;;;;;;23.91;81.34;95067.91;4994140;28;20426;-81
2022/06/27 09:10:35;;;;;;;9.00;4.63;;;;;;;24.01;80.36;95068.50;4992791;28;20698;-87
2022/06/27 09:13:08;;;;;;;7.03;4.78;;;;;;;24.05;81.94;95066.06;4989878;28;20208;-79
2022/06/27 09:15:52;;;;;;;6.10;3.40;;;;;;;24.16;90.67;95073.59;4991578;28;20243;-80
2022/06/27 09:18:24;;;;;;;4.75;3.97;;;;;;;24.28;93.36;95060.63;4987832;28;20196;-81
2022/06/27 09:20:57;;;;;;;6.65;4.88;;;;;;;24.41;87.22;95068.91;4994252;28;20294;-80
2022/06/27 09:23:47;;;;;;;7.70;5.30;;;;;;;24.47;85.21;95071.19;4992901;28;20238;-81
2022/06/27 09:26:25;;;;;;;7.97;5.30;;;;;;;24.45;80.79;95073.34;4990627;28;20203;-81
2022/06/27 09:29:00;;;;;;;8.85;5.75;;;;;;;24.38;80.78;95067.63;4987769;28;20299;-80
2022/06/27 09:31:43;;;;;;;9.65;5.50;;;;;;;24.38;80.65;95072.97;4990548;28;20208;-79
2022/06/27 09:34:14;;;;;;;9.10;5.13;;;;;;;24.34;82.50;95056.00;4987375;28;20617;-81
2022/06/27 09:36:51;;;;;;;8.00;5.20;;;;;;;24.44;81.17;95068.34;4990753;28;20596;-81
2022/06/27 09:39:34;;;;;;;5.18;4.57;;;;;;;24.49;78.94;95066.38;4992443;28;20239;-82
2022/06/27 09:42:09;;;;;;;6.00;4.93;;;;;;;24.62;77.43;95062.13;4994454;28;20277;-82
2022/06/27 09:44:45;;;;;;;9.65;4.78;;;;;;;24.67;80.66;95059.38;4992161;28;20270;-81
2022/06/27 09:47:25;;;;;;;7.20;4.93;;;;;;;24.75;78.48;95053.38;4993811;28;20195;-81
2022/06/27 09:49:56;;;;;;;12.88;6.25;;;;;;;24.66;81.08;95029.34;4991004;28;20614;-81
2022/06/27 09:52:27;;;;;;;9.50;5.13;;;;;;;24.79;78.07;95062.34;4992518;28;20561;-89
2022/06/27 09:55:07;;;;;;;8.38;5.38;;;;;;;24.82;79.08;95067.06;4994846;28;20212;-89
2022/06/27 09:57:44;;;;;;;7.25;5.95;;;;;;;24.90;77.68;95054.97;4991313;28;20208;-88
2022/06/27 10:00:17;;;;;;;7.88;5.05;;;;;;;24.99;77.00;95059.28;4991369;28;20281;-86
2022/06/27 10:02:51;;;;;;;5.82;4.45;;;;;;;25.11;81.58;95058.75;4987573;28;20210;-80
2022/06/27 10:05:23;;;;;;;7.80;4.97;;;;;;;24.99;78.93;95030.03;4988841;28;20788;-79
2022/06/27 10:08:05;;;;;;;7.63;4.88;;;;;;;25.28;77.49;95053.63;4996549;28;20232;-77
2022/06/27 10:11:15;;;;;;;6.82;4.80;;;;;;;25.54;84.17;95051.94;4991510;28;20660;-79
2022/06/27 10:13:47;;;;;;;6.18;5.07;;;;;;;25.72;76.37;95055.53;4998711;28;20230;-78
2022/06/27 10:16:20;;;;;;;12.75;5.50;;;;;;;25.75;73.22;95047.72;4995649;28;20231;-78
2022/06/27 10:19:18;;;;;;;8.00;5.90;;;;;;;25.75;72.99;95044.28;4989930;28;20218;-77
2022/06/27 10:22:01;;;;;;;6.07;5.43;;;;;;;25.81;72.67;95046.53;4992830;28;20291;-76
2022/06/27 10:24:35;;;;;;;6.53;5.50;;;;;;;25.81;72.22;95038.53;4988755;28;20204;-78
2022/06/27 10:27:30;;;;;;;6.03;5.40;;;;;;;25.94;72.47;95042.97;4999578;28;20211;-78
2022/06/27 10:30:02;;;;;;;6.95;5.10;;;;;;;26.02;74.99;95032.69;4994859;28;20415;-79
2022/06/27 10:32:49;;;;;;;9.30;4.90;;;;;;;26.23;74.29;95031.13;4993316;28;20223;-79
2022/06/27 10:35:24;;;;;;;5.65;5.10;;;;;;;26.54;76.57;95033.75;4987504;28;20207;-79
2022/06/27 10:37:53;;;;;;;7.35;4.40;;;;;;;26.74;75.92;95030.50;4993425;28;20199;-79
2022/06/27 10:40:49;;;;;;;7.13;5.30;;;;;;;27.04;74.97;95032.34;4999264;28;20208;-79
2022/06/27 10:43:52;;;;;;;8.48;5.15;;;;;;;27.35;73.50;95029.53;4992608;28;20207;-78
2022/06/27 10:46:45;;;;;;;11.07;5.18;;;;;;;27.67;70.24;95030.97;4997656;28;20203;-78
2022/06/27 10:49:25;;;;;;;6.80;5.32;;;;;;;27.92;68.73;95028.25;4998968;28;20204;-79
2022/06/27 10:52:23;;;;;;;6.25;4.85;;;;;;;28.08;69.02;95023.25;4995929;28;20269;-79
2022/06/27 10:54:55;;;;;;;5.72;5.13;;;;;;;28.15;66.74;95026.97;5000558;28;20662;-80
2022/06/27 10:57:45;;;;;;;7.63;4.97;;;;;;;28.27;67.53;95020.97;4997626;28;20303;-82
2022/06/27 11:00:50;;;;;;;8.80;5.03;;;;;;;28.57;66.31;95033.25;4993175;28;20207;-81
2022/06/27 11:03:33;;;;;;;7.13;4.80;;;;;;;28.58;65.89;95026.03;4989749;28;20273;-81
2022/06/27 11:06:13;;;;;;;7.38;5.38;;;;;;;28.79;66.13;95015.41;4996928;28;20243;-76
2022/06/27 11:08:47;;;;;;;7.88;5.38;;;;;;;28.91;66.98;95026.19;4998876;28;20210;-77
2022/06/27 11:11:21;;;;;;;6.50;5.00;;;;;;;28.77;67.92;95025.66;5001165;28;20207;-79
2022/06/27 11:13:56;;;;;;;7.22;4.50;;;;;;;28.61;67.01;95023.50;4993882;28;20200;-78
2022/06/27 11:16:31;;;;;;;6.03;4.47;;;;;;;28.50;65.36;95013.47;4993174;28;20722;-82
2022/06/27 11:20:04;;;;;;;5.97;4.30;;;;;;;28.37;67.00;95011.81;4993086;28;20218;-82
2022/06/27 11:21:57;;;;;;;5.88;3.80;;;;;;;28.41;64.00;94999.34;4992075;28;20199;-81
2022/06/27 11:24:29;;;;;;;4.47;3.80;;;;;;;28.82;62.19;95012.88;4994519;28;20218;-81
2022/06/27 11:27:02;;;;;;;4.28;3.80;;;;;;;29.25;61.38;95016.09;4994478;28;20196;-81
2022/06/27 11:32:20;;;;;;;6.82;4.03;;;;;;;29.83;57.13;95016.25;4990123;28;20319;-80
2022/06/27 11:34:57;;;;;;;4.20;3.45;;;;;;;30.04;55.93;95025.81;4991612;28;20646;-81
2022/06/27 11:37:37;;;;;;;5.28;3.50;;;;;;;29.86;54.98;95019.06;4992723;28;20235;-79
2022/06/27 11:40:13;;;;;;;6.20;3.95;;;;;;;30.10;55.39;95023.72;4993104;28;20667;-80
2022/06/27 11:42:49;;;;;;;6.88;4.13;;;;;;;30.21;55.41;95025.63;4993704;28;20215;-81
2022/06/27 11:45:24;;;;;;;4.57;3.67;;;;;;;30.05;54.81;95016.63;4996374;28;20207;-80
2022/06/27 11:47:55;;;;;;;7.38;3.80;;;;;;;29.94;54.30;95003.97;4998316;28;20756;-80
2022/06/27 11:50:36;;;;;;;6.53;3.67;;;;;;;30.03;54.23;95016.19;4993851;28;20199;-81
2022/06/27 11:53:05;;;;;;;3.95;3.55;;;;;;;30.28;54.25;95017.81;4992433;28;20218;-81
2022/06/27 11:55:35;;;;;;;4.90;3.97;;;;;;;30.10;55.07;94999.56;4993415;28;20215;-81
2022/06/27 11:58:07;;;;;;;4.45;3.92;;;;;;;30.10;55.41;95013.75;4995422;28;20207;-80
2022/06/27 12:00:43;;;;;;;4.80;4.00;;;;;;;30.17;54.22;95011.31;4993475;28;20282;-79
2022/06/27 12:03:15;;;;;;;5.40;3.60;;;;;;;30.56;54.32;95014.53;4995669;28;20207;-80
2022/06/27 12:05:47;;;;;;;3.92;3.22;;;;;;;30.92;51.22;95017.19;4989398;28;20211;-78